createdAt,value
2022-11-07T00:00:39.921Z,3.2
2022-11-07T00:01:34.558Z,2.2
2022-11-07T00:02:34.422Z,2.4
2022-11-07T00:03:34.171Z,2.4
2022-11-07T00:04:34.294Z,2.4
2022-11-07T00:05:39.281Z,3.0
2022-11-07T00:06:34.475Z,2.8
2022-11-07T00:07:34.420Z,2.1
2022-11-07T00:08:34.169Z,2.4
2022-11-07T00:09:33.930Z,2.0
2022-11-07T00:10:34.622Z,2.8
2022-11-07T00:11:34.456Z,2.0
2022-11-07T00:12:34.314Z,2.3
2022-11-07T00:13:34.051Z,3.0
2022-11-07T00:14:33.890Z,3.0
2022-11-07T00:15:34.880Z,2.4
2022-11-07T00:16:34.370Z,3.4
2022-11-07T00:17:34.211Z,3.3
2022-11-07T00:18:34.054Z,3.0
2022-11-07T00:19:34.716Z,2.1
2022-11-07T00:20:34.498Z,2.0
2022-11-07T00:21:34.355Z,2.5
2022-11-07T00:22:34.204Z,2.1
2022-11-07T00:23:34.500Z,3.4
2022-11-07T00:24:34.659Z,2.8
2022-11-07T00:25:34.443Z,2.7
2022-11-07T00:26:34.867Z,2.8
2022-11-07T00:27:34.189Z,2.7
2022-11-07T00:28:34.627Z,2.8
2022-11-07T00:29:34.669Z,3.0
2022-11-07T00:30:34.459Z,3.6
2022-11-07T00:31:34.374Z,2.7
2022-11-07T00:32:34.065Z,2.7
2022-11-07T00:33:34.123Z,3.0
2022-11-07T00:34:34.587Z,2.7
2022-11-07T00:35:34.372Z,3.1
2022-11-07T00:36:34.228Z,3.0
2022-11-07T00:37:33.994Z,2.7
2022-11-07T00:38:34.798Z,2.9
2022-11-07T00:39:34.842Z,2.6
2022-11-07T00:40:34.332Z,2.5
2022-11-07T00:41:34.166Z,2.9
2022-11-07T00:42:34.008Z,3.0
2022-11-07T00:43:35.295Z,2.4
2022-11-07T00:44:34.438Z,3.1
2022-11-07T00:45:34.289Z,3.2
2022-11-07T00:46:34.121Z,2.2
2022-11-07T00:47:33.942Z,2.8
2022-11-07T00:48:35.037Z,2.2
2022-11-07T00:49:34.497Z,2.3
2022-11-07T00:50:34.313Z,2.1
2022-11-07T00:51:34.317Z,2.5
2022-11-07T00:52:34.773Z,2.8
2022-11-07T00:53:34.544Z,2.8
2022-11-07T00:54:34.404Z,2.6
2022-11-07T00:55:34.270Z,2.3
2022-11-07T00:56:34.063Z,2.6
2022-11-07T00:57:34.726Z,2.9
2022-11-07T00:58:34.568Z,2.6
2022-11-07T00:59:34.359Z,2.7
2022-11-07T01:00:37.069Z,2.8
2022-11-07T01:01:34.319Z,2.9
2022-11-07T01:02:34.899Z,2.6
2022-11-07T01:03:34.660Z,2.5
2022-11-07T01:04:34.318Z,2.4
2022-11-07T01:05:34.185Z,2.4
2022-11-07T01:06:36.056Z,2.6
2022-11-07T01:07:34.703Z,2.6
2022-11-07T01:08:34.718Z,2.2
2022-11-07T01:09:34.297Z,2.2
2022-11-07T01:10:39.044Z,2.4
2022-11-07T01:11:33.954Z,3.1
2022-11-07T01:12:34.860Z,3.0
2022-11-07T01:13:34.778Z,2.7
2022-11-07T01:14:34.771Z,3.1
2022-11-07T01:15:34.026Z,2.5
2022-11-07T01:16:34.965Z,2.6
2022-11-07T01:17:34.580Z,3.1
2022-11-07T01:18:34.403Z,2.4
2022-11-07T01:19:34.280Z,2.0
2022-11-07T01:20:34.112Z,3.2
2022-11-07T01:21:36.465Z,2.6
2022-11-07T01:22:34.504Z,2.4
2022-11-07T01:23:34.381Z,2.4
2022-11-07T01:24:34.296Z,2.1
2022-11-07T01:25:37.223Z,2.7
2022-11-07T01:26:35.597Z,2.6
2022-11-07T01:27:34.099Z,2.9
2022-11-07T01:28:35.230Z,2.7
2022-11-07T01:29:34.568Z,2.4
2022-11-07T01:30:37.895Z,2.7
2022-11-07T01:31:34.441Z,2.8
2022-11-07T01:32:34.069Z,2.3
2022-11-07T01:33:34.132Z,2.7
2022-11-07T01:34:34.576Z,3.3
2022-11-07T01:35:34.760Z,2.1
2022-11-07T01:36:34.198Z,2.8
2022-11-07T01:37:34.483Z,2.6
2022-11-07T01:38:37.719Z,2.6
2022-11-07T01:39:34.049Z,2.8
2022-11-07T01:40:39.526Z,2.7
2022-11-07T01:41:35.968Z,2.6
2022-11-07T01:42:34.510Z,2.2
2022-11-07T01:43:52.404Z,1.9
2022-11-07T01:44:38.984Z,2.3
2022-11-07T01:45:33.931Z,2.3
2022-11-07T01:46:38.946Z,2.7
2022-11-07T01:47:37.487Z,2.1
2022-11-07T01:48:34.229Z,2.1
2022-11-07T01:49:36.373Z,2.3
2022-11-07T01:50:33.923Z,2.8
2022-11-07T01:51:38.305Z,2.4
2022-11-07T01:52:37.479Z,2.5
2022-11-07T01:53:34.613Z,2.7
2022-11-07T01:54:40.112Z,2.4
2022-11-07T01:55:34.408Z,2.0
2022-11-07T01:56:36.490Z,2.4
2022-11-07T01:57:42.029Z,2.8
2022-11-07T01:58:34.241Z,2.5
2022-11-07T01:59:35.272Z,2.3
2022-11-07T02:00:35.304Z,2.8
2022-11-07T02:01:34.773Z,2.2
2022-11-07T02:02:34.746Z,2.6
2022-11-07T02:03:34.400Z,2.5
2022-11-07T02:04:34.463Z,2.1
2022-11-07T02:05:36.137Z,2.4
2022-11-07T02:06:48.014Z,2.1
2022-11-07T02:07:35.028Z,2.0
2022-11-07T02:08:36.124Z,2.4
2022-11-07T02:09:34.316Z,2.2
2022-11-07T02:10:35.746Z,2.2
2022-11-07T02:11:35.056Z,2.6
2022-11-07T02:12:34.622Z,2.8
2022-11-07T02:13:34.282Z,2.5
2022-11-07T02:14:34.079Z,2.5
2022-11-07T02:15:35.400Z,2.2
2022-11-07T02:16:35.313Z,2.5
2022-11-07T02:17:34.414Z,2.9
2022-11-07T02:18:35.854Z,2.2
2022-11-07T02:19:38.849Z,2.7
2022-11-07T02:20:34.829Z,2.8
2022-11-07T02:21:41.976Z,2.1
2022-11-07T02:22:50.948Z,2.5
2022-11-07T02:23:42.088Z,2.6
2022-11-07T02:24:35.054Z,2.5
2022-11-07T02:25:35.366Z,2.5
2022-11-07T02:26:36.247Z,2.9
2022-11-07T02:27:35.129Z,3.0
2022-11-07T02:28:35.650Z,2.6
2022-11-07T02:29:34.883Z,2.3
2022-11-07T02:30:34.772Z,2.6
2022-11-07T02:31:34.504Z,2.8
2022-11-07T02:32:34.291Z,2.8
2022-11-07T02:33:34.121Z,2.1
2022-11-07T02:34:34.085Z,1.8
2022-11-07T02:35:41.757Z,1.7
2022-11-07T02:36:34.456Z,2.1
2022-11-07T02:37:37.856Z,2.1
2022-11-07T02:38:35.647Z,2.8
2022-11-07T02:39:35.606Z,3.1
2022-11-07T02:40:34.665Z,2.3
2022-11-07T02:41:34.586Z,2.8
2022-11-07T02:42:36.340Z,3.1
2022-11-07T02:43:35.598Z,1.9
2022-11-07T02:44:34.899Z,1.8
2022-11-07T02:45:38.432Z,1.9
2022-11-07T02:46:34.688Z,1.7
2022-11-07T02:47:34.181Z,1.5
2022-11-07T02:48:38.853Z,2.2
2022-11-07T02:49:34.709Z,2.1
2022-11-07T02:50:34.556Z,2.1
2022-11-07T02:51:34.341Z,2.2
2022-11-07T02:52:34.307Z,2.1
2022-11-07T02:53:34.070Z,1.9
2022-11-07T02:54:34.652Z,1.7
2022-11-07T02:55:34.539Z,2.0
2022-11-07T02:56:34.320Z,2.0
2022-11-07T02:57:34.228Z,2.9
2022-11-07T02:58:33.980Z,3.0
2022-11-07T02:59:34.698Z,2.5
2022-11-07T03:00:37.353Z,2.3
2022-11-07T03:01:34.445Z,1.9
2022-11-07T03:02:34.339Z,2.3
2022-11-07T03:03:34.300Z,2.4
2022-11-07T03:04:34.647Z,2.0
2022-11-07T03:05:34.455Z,2.1
2022-11-07T03:06:34.477Z,2.6
2022-11-07T03:07:34.090Z,2.3
2022-11-07T03:08:34.168Z,2.2
2022-11-07T03:09:34.654Z,2.5
2022-11-07T03:10:34.558Z,2.4
2022-11-07T03:11:34.345Z,2.5
2022-11-07T03:12:34.121Z,2.0
2022-11-07T03:13:34.245Z,2.3
2022-11-07T03:14:34.613Z,2.2
2022-11-07T03:15:34.379Z,2.7
2022-11-07T03:16:34.314Z,2.3
2022-11-07T03:17:34.157Z,2.3
2022-11-07T03:18:35.100Z,2.0
2022-11-07T03:19:34.565Z,2.4
2022-11-07T03:20:34.375Z,1.8
2022-11-07T03:21:34.255Z,1.7
2022-11-07T03:22:34.109Z,2.3
2022-11-07T03:23:35.008Z,1.6
2022-11-07T03:24:34.487Z,2.1
2022-11-07T03:25:34.310Z,2.6
2022-11-07T03:26:34.198Z,2.7
2022-11-07T03:27:33.934Z,2.0
2022-11-07T03:28:34.830Z,2.1
2022-11-07T03:29:34.504Z,2.2
2022-11-07T03:30:34.390Z,2.8
2022-11-07T03:31:34.167Z,2.2
2022-11-07T03:32:33.932Z,2.4
2022-11-07T03:33:34.736Z,2.3
2022-11-07T03:34:34.455Z,1.7
2022-11-07T03:35:34.274Z,1.4
2022-11-07T03:36:34.095Z,2.0
2022-11-07T03:37:33.922Z,2.5
2022-11-07T03:38:34.636Z,1.6
2022-11-07T03:39:34.485Z,1.6
2022-11-07T03:40:34.291Z,2.1
2022-11-07T03:41:34.098Z,1.9
2022-11-07T03:42:39.673Z,1.5
2022-11-07T03:43:34.599Z,1.4
2022-11-07T03:44:34.364Z,1.9
2022-11-07T03:45:34.168Z,2.3
2022-11-07T03:46:34.039Z,2.2
2022-11-07T03:47:35.188Z,2.7
2022-11-07T03:48:34.568Z,2.0
2022-11-07T03:49:34.432Z,2.0
2022-11-07T03:50:34.318Z,1.8
2022-11-07T03:51:34.035Z,2.1
2022-11-07T03:52:34.688Z,2.2
2022-11-07T03:53:34.718Z,1.9
2022-11-07T03:54:34.352Z,2.3
2022-11-07T03:55:34.157Z,2.2
2022-11-07T03:56:33.960Z,2.0
2022-11-07T03:57:34.786Z,1.9
2022-11-07T03:58:34.764Z,2.4
2022-11-07T03:59:34.412Z,2.3
2022-11-07T04:00:34.147Z,2.1
2022-11-07T04:01:34.059Z,2.1
2022-11-07T04:02:34.773Z,1.9
2022-11-07T04:03:34.418Z,1.8
2022-11-07T04:04:34.312Z,1.7
2022-11-07T04:05:34.196Z,1.9
2022-11-07T04:06:34.816Z,2.3
2022-11-07T04:07:34.613Z,2.1
2022-11-07T04:08:34.741Z,1.4
2022-11-07T04:09:34.314Z,1.9
2022-11-07T04:10:34.073Z,2.1
2022-11-07T04:11:33.913Z,2.2
2022-11-07T04:12:34.131Z,1.6
2022-11-07T04:13:34.037Z,2.2
2022-11-07T04:14:34.777Z,1.6
2022-11-07T04:15:34.437Z,2.5
2022-11-07T04:16:34.257Z,1.8
2022-11-07T04:17:34.072Z,2.6
2022-11-07T04:18:34.810Z,1.9
2022-11-07T04:19:34.665Z,1.8
2022-11-07T04:20:34.490Z,1.3
2022-11-07T04:21:34.237Z,1.3
2022-11-07T04:22:34.051Z,1.7
2022-11-07T04:23:34.757Z,1.7
2022-11-07T04:24:34.526Z,1.7
2022-11-07T04:25:34.410Z,1.7
2022-11-07T04:26:34.201Z,1.9
2022-11-07T04:27:34.062Z,2.0
2022-11-07T04:28:34.729Z,2.1
2022-11-07T04:29:34.696Z,1.8
2022-11-07T04:30:34.354Z,2.0
2022-11-07T04:31:34.213Z,2.4
2022-11-07T04:32:34.010Z,1.9
2022-11-07T04:33:34.699Z,1.9
2022-11-07T04:34:34.483Z,1.5
2022-11-07T04:35:34.282Z,2.0
2022-11-07T04:36:34.099Z,2.1
2022-11-07T04:37:34.007Z,2.0
2022-11-07T04:38:34.651Z,1.6
2022-11-07T04:39:34.446Z,2.1
2022-11-07T04:40:34.304Z,2.0
2022-11-07T04:41:34.101Z,1.7
2022-11-07T04:42:33.941Z,1.8
2022-11-07T04:43:34.587Z,2.2
2022-11-07T04:44:34.403Z,1.8
2022-11-07T04:45:34.881Z,1.7
2022-11-07T04:46:34.027Z,2.1
2022-11-07T04:47:39.241Z,2.4
2022-11-07T04:48:34.517Z,1.9
2022-11-07T04:49:34.365Z,2.4
2022-11-07T04:50:34.138Z,1.8
2022-11-07T04:51:38.883Z,2.3
2022-11-07T04:52:34.925Z,1.7
2022-11-07T04:53:34.467Z,1.6
2022-11-07T04:54:34.257Z,1.3
2022-11-07T04:55:34.119Z,1.1
2022-11-07T04:56:34.680Z,1.6
2022-11-07T04:57:34.664Z,1.2
2022-11-07T04:58:34.458Z,2.0
2022-11-07T04:59:34.317Z,1.9
2022-11-07T05:00:34.239Z,1.6
2022-11-07T05:01:34.002Z,2.2
2022-11-07T05:02:34.596Z,2.0
2022-11-07T05:03:38.906Z,2.2
2022-11-07T05:04:34.154Z,1.9
2022-11-07T05:05:33.980Z,1.5
2022-11-07T05:06:35.396Z,1.2
2022-11-07T05:07:34.492Z,1.6
2022-11-07T05:08:34.401Z,0.9
2022-11-07T05:09:34.208Z,1.3
2022-11-07T05:10:33.960Z,1.1
2022-11-07T05:11:34.624Z,2.0
2022-11-07T05:12:34.430Z,1.3
2022-11-07T05:13:34.359Z,1.5
2022-11-07T05:14:34.193Z,1.2
2022-11-07T05:15:33.943Z,1.0
2022-11-07T05:16:34.935Z,1.8
2022-11-07T05:17:34.407Z,1.4
2022-11-07T05:18:34.247Z,1.4
2022-11-07T05:19:34.101Z,1.1
2022-11-07T05:20:36.048Z,1.6
2022-11-07T05:21:34.585Z,1.4
2022-11-07T05:22:34.389Z,1.7
2022-11-07T05:23:34.121Z,1.6
2022-11-07T05:24:33.954Z,2.0
2022-11-07T05:25:34.753Z,1.9
2022-11-07T05:26:34.656Z,1.6
2022-11-07T05:27:34.345Z,1.9
2022-11-07T05:28:39.161Z,1.8
2022-11-07T05:29:36.033Z,1.8
2022-11-07T05:30:37.205Z,1.7
2022-11-07T05:31:34.438Z,1.4
2022-11-07T05:32:34.247Z,1.4
2022-11-07T05:33:34.546Z,1.5
2022-11-07T05:34:34.717Z,1.7
2022-11-07T05:35:34.771Z,1.9
2022-11-07T05:36:34.452Z,2.4
2022-11-07T05:37:34.243Z,2.0
2022-11-07T05:38:34.041Z,1.6
2022-11-07T05:39:34.816Z,1.7
2022-11-07T05:40:35.002Z,1.8
2022-11-07T05:41:34.649Z,1.9
2022-11-07T05:42:34.142Z,2.2
2022-11-07T05:43:33.964Z,1.9
2022-11-07T05:44:34.650Z,1.2
2022-11-07T05:45:35.083Z,1.7
2022-11-07T05:46:34.428Z,2.2
2022-11-07T05:47:34.128Z,1.5
2022-11-07T05:48:33.918Z,2.0
2022-11-07T05:49:34.579Z,1.7
2022-11-07T05:50:35.410Z,1.2
2022-11-07T05:51:34.226Z,1.5
2022-11-07T05:52:34.222Z,1.5
2022-11-07T05:53:35.073Z,1.7
2022-11-07T05:54:34.579Z,1.4
2022-11-07T05:55:34.414Z,1.5
2022-11-07T05:56:34.233Z,1.3
2022-11-07T05:57:34.088Z,1.7
2022-11-07T05:58:34.687Z,2.2
2022-11-07T05:59:34.475Z,2.0
2022-11-07T06:00:34.422Z,1.3
2022-11-07T06:01:34.351Z,1.4
2022-11-07T06:02:34.034Z,1.3
2022-11-07T06:03:34.800Z,1.1
2022-11-07T06:04:34.471Z,1.1
2022-11-07T06:05:34.312Z,0.8
2022-11-07T06:06:34.106Z,1.3
2022-11-07T06:07:34.558Z,0.8
2022-11-07T06:08:34.707Z,1.5
2022-11-07T06:09:34.455Z,1.8
2022-11-07T06:10:35.079Z,1.6
2022-11-07T06:11:34.122Z,1.3
2022-11-07T06:12:34.762Z,1.4
2022-11-07T06:13:34.612Z,1.3
2022-11-07T06:14:34.419Z,1.1
2022-11-07T06:15:35.414Z,1.2
2022-11-07T06:16:34.102Z,2.2
2022-11-07T06:17:34.696Z,1.4
2022-11-07T06:18:37.723Z,1.4
2022-11-07T06:19:34.421Z,2.0
2022-11-07T06:20:34.489Z,1.3
2022-11-07T06:21:34.211Z,0.7
2022-11-07T06:22:34.691Z,1.4
2022-11-07T06:23:34.564Z,1.2
2022-11-07T06:24:34.400Z,0.7
2022-11-07T06:25:34.860Z,1.0
2022-11-07T06:26:33.977Z,1.9
2022-11-07T06:27:34.610Z,1.2
2022-11-07T06:28:34.903Z,1.7
2022-11-07T06:29:34.274Z,1.4
2022-11-07T06:30:39.122Z,1.3
2022-11-07T06:31:34.779Z,1.1
2022-11-07T06:32:34.657Z,0.7
2022-11-07T06:33:34.440Z,1.7
2022-11-07T06:34:34.272Z,1.2
2022-11-07T06:35:34.236Z,1.0
2022-11-07T06:36:34.952Z,0.9
2022-11-07T06:37:34.527Z,1.2
2022-11-07T06:38:34.783Z,2.1
2022-11-07T06:39:34.146Z,1.6
2022-11-07T06:40:34.070Z,1.3
2022-11-07T06:41:34.903Z,1.9
2022-11-07T06:42:34.761Z,1.3
2022-11-07T06:43:34.347Z,1.2
2022-11-07T06:44:34.189Z,1.5
2022-11-07T06:45:34.050Z,1.7
2022-11-07T06:46:34.654Z,1.4
2022-11-07T06:47:34.410Z,1.2
2022-11-07T06:48:34.208Z,0.7
2022-11-07T06:49:34.078Z,1.2
2022-11-07T06:50:35.008Z,1.4
2022-11-07T06:51:34.598Z,1.0
2022-11-07T06:52:34.415Z,1.3
2022-11-07T06:53:34.386Z,1.2
2022-11-07T06:54:34.026Z,1.1
2022-11-07T06:55:35.410Z,1.2
2022-11-07T06:56:34.514Z,1.2
2022-11-07T06:57:34.432Z,2.0
2022-11-07T06:58:34.129Z,1.4
2022-11-07T06:59:33.970Z,1.4
2022-11-07T07:00:35.559Z,1.0
2022-11-07T07:01:34.662Z,1.3
2022-11-07T07:03:34.504Z,1.9
2022-11-07T07:04:33.905Z,1.0
2022-11-07T07:05:34.628Z,1.8
2022-11-07T07:06:34.425Z,1.2
2022-11-07T07:07:34.242Z,1.1
2022-11-07T07:08:34.077Z,1.6
2022-11-07T07:09:34.732Z,1.3
2022-11-07T07:10:36.010Z,1.5
2022-11-07T07:11:34.969Z,1.9
2022-11-07T07:12:34.354Z,1.8
2022-11-07T07:13:34.299Z,1.5
2022-11-07T07:14:34.705Z,1.3
2022-11-07T07:15:49.931Z,1.1
2022-11-07T07:16:34.592Z,1.6
2022-11-07T07:17:34.599Z,0.9
2022-11-07T07:18:34.722Z,1.8
2022-11-07T07:19:34.161Z,1.5
2022-11-07T07:20:33.989Z,1.3
2022-11-07T07:21:34.727Z,1.3
2022-11-07T07:22:34.589Z,1.2
2022-11-07T07:23:34.531Z,1.8
2022-11-07T07:24:34.186Z,1.2
2022-11-07T07:25:33.992Z,1.2
2022-11-07T07:26:34.796Z,1.0
2022-11-07T07:27:34.034Z,1.9
2022-11-07T07:28:34.871Z,1.4
2022-11-07T07:29:34.514Z,1.1
2022-11-07T07:30:34.342Z,1.3
2022-11-07T07:31:34.203Z,1.2
2022-11-07T07:32:36.842Z,1.1
2022-11-07T07:33:34.758Z,0.5
2022-11-07T07:34:34.595Z,1.0
2022-11-07T07:35:34.369Z,1.2
2022-11-07T07:36:34.165Z,1.2
2022-11-07T07:37:34.060Z,1.2
2022-11-07T07:38:34.915Z,0.8
2022-11-07T07:39:34.625Z,1.4
2022-11-07T07:40:34.330Z,1.9
2022-11-07T07:41:39.077Z,1.6
2022-11-07T07:42:38.796Z,1.4
2022-11-07T07:43:34.650Z,1.4
2022-11-07T07:44:34.554Z,0.6
2022-11-07T07:45:34.270Z,0.7
2022-11-07T07:46:34.107Z,1.8
2022-11-07T07:47:33.906Z,1.6
2022-11-07T07:48:34.635Z,1.7
2022-11-07T07:49:34.499Z,1.8
2022-11-07T07:50:34.803Z,2.1
2022-11-07T07:51:34.091Z,1.4
2022-11-07T07:52:34.773Z,1.6
2022-11-07T07:53:34.567Z,1.4
2022-11-07T07:54:34.394Z,1.2
2022-11-07T07:55:34.535Z,2.3
2022-11-07T07:56:33.992Z,1.2
2022-11-07T07:57:43.612Z,1.5
2022-11-07T07:58:34.533Z,1.5
2022-11-07T07:59:34.359Z,2.0
2022-11-07T08:00:40.097Z,1.6
2022-11-07T08:01:34.072Z,1.5
2022-11-07T08:02:34.843Z,1.7
2022-11-07T08:03:57.601Z,1.5
2022-11-07T08:04:34.317Z,1.5
2022-11-07T08:05:34.568Z,1.7
2022-11-07T08:06:33.924Z,1.9
2022-11-07T08:07:34.631Z,1.3
2022-11-07T08:08:38.139Z,1.3
2022-11-07T08:09:34.433Z,1.6
2022-11-07T08:10:42.096Z,1.3
2022-11-07T08:11:34.886Z,1.3
2022-11-07T08:12:34.693Z,1.6
2022-11-07T08:13:34.797Z,1.6
2022-11-07T08:14:34.168Z,1.3
2022-11-07T08:15:34.022Z,1.3
2022-11-07T08:16:34.718Z,1.6
2022-11-07T08:17:35.511Z,1.5
2022-11-07T08:18:34.381Z,1.5
2022-11-07T08:19:34.087Z,1.3
2022-11-07T08:20:35.086Z,0.9
2022-11-07T08:21:34.664Z,1.4
2022-11-07T08:22:34.987Z,1.3
2022-11-07T08:23:34.271Z,1.5
2022-11-07T08:24:35.083Z,1.7
2022-11-07T08:25:34.900Z,1.2
2022-11-07T08:26:35.525Z,1.4
2022-11-07T08:27:34.707Z,1.7
2022-11-07T08:28:34.928Z,1.5
2022-11-07T08:29:33.944Z,1.7
2022-11-07T08:30:34.807Z,0.8
2022-11-07T08:31:34.602Z,0.8
2022-11-07T08:32:34.278Z,1.2
2022-11-07T08:33:34.733Z,1.8
2022-11-07T08:34:33.901Z,2.0
2022-11-07T08:35:38.202Z,1.5
2022-11-07T08:36:34.378Z,1.3
2022-11-07T08:37:34.249Z,1.4
2022-11-07T08:38:34.745Z,1.0
2022-11-07T08:39:34.771Z,1.3
2022-11-07T08:40:34.518Z,1.3
2022-11-07T08:41:34.318Z,1.3
2022-11-07T08:42:34.161Z,1.2
2022-11-07T08:43:34.405Z,1.6
2022-11-07T08:44:34.596Z,1.1
2022-11-07T08:45:34.459Z,1.4
2022-11-07T08:46:34.241Z,1.7
2022-11-07T08:47:34.034Z,1.5
2022-11-07T08:48:34.803Z,1.8
2022-11-07T08:49:34.569Z,1.6
2022-11-07T08:50:34.412Z,1.1
2022-11-07T08:51:34.375Z,1.4
2022-11-07T08:52:34.853Z,1.1
2022-11-07T08:53:34.655Z,1.3
2022-11-07T08:54:37.539Z,1.5
2022-11-07T08:55:34.679Z,1.3
2022-11-07T08:56:34.155Z,1.0
2022-11-07T08:57:33.964Z,1.5
2022-11-07T08:58:35.020Z,1.5
2022-11-07T08:59:34.657Z,1.4
2022-11-07T09:00:35.085Z,2.0
2022-11-07T09:01:40.429Z,1.7
2022-11-07T09:03:46.149Z,1.5
2022-11-07T09:04:34.796Z,1.2
2022-11-07T09:05:34.534Z,0.9
2022-11-07T09:06:34.068Z,1.0
2022-11-07T09:07:36.783Z,1.2
2022-11-07T09:08:34.517Z,1.6
2022-11-07T09:09:36.696Z,1.3
2022-11-07T09:10:34.139Z,1.2
2022-11-07T09:11:33.967Z,1.5
2022-11-07T09:12:34.618Z,2.3
2022-11-07T09:13:34.883Z,1.9
2022-11-07T09:14:34.291Z,1.8
2022-11-07T09:15:36.581Z,1.4
2022-11-07T09:16:34.780Z,2.0
2022-11-07T09:17:34.628Z,1.8
2022-11-07T09:18:34.541Z,1.5
2022-11-07T09:19:34.245Z,1.3
2022-11-07T09:20:34.046Z,1.6
2022-11-07T09:21:34.859Z,1.6
2022-11-07T09:22:34.510Z,1.3
2022-11-07T09:23:34.388Z,1.3
2022-11-07T09:24:34.147Z,1.6
2022-11-07T09:25:33.947Z,1.1
2022-11-07T09:26:34.719Z,1.5
2022-11-07T09:27:35.695Z,1.7
2022-11-07T09:28:34.781Z,1.5
2022-11-07T09:29:34.115Z,1.6
2022-11-07T09:30:33.997Z,0.9
2022-11-07T09:31:34.632Z,1.2
2022-11-07T09:32:45.081Z,1.3
2022-11-07T09:33:34.258Z,1.2
2022-11-07T09:34:34.045Z,1.3
2022-11-07T09:35:34.757Z,1.3
2022-11-07T09:36:34.588Z,1.6
2022-11-07T09:37:36.996Z,1.9
2022-11-07T09:38:34.238Z,2.0
2022-11-07T09:39:34.019Z,1.7
2022-11-07T09:40:57.623Z,1.3
2022-11-07T09:41:41.998Z,1.8
2022-11-07T09:42:45.043Z,2.0
2022-11-07T09:43:57.074Z,2.0
2022-11-07T09:44:38.977Z,1.7
2022-11-07T09:45:37.844Z,1.6
2022-11-07T09:46:52.509Z,1.9
2022-11-07T09:47:40.606Z,1.3
2022-11-07T09:48:44.985Z,2.1
2022-11-07T09:49:37.609Z,1.8
2022-11-07T09:50:38.479Z,1.6
2022-11-07T09:51:36.178Z,2.8
2022-11-07T09:52:42.506Z,1.6
2022-11-07T09:53:37.308Z,1.9
2022-11-07T09:54:37.145Z,1.5
2022-11-07T09:55:39.022Z,1.0
2022-11-07T09:56:33.958Z,1.3
2022-11-07T09:57:35.225Z,1.6
2022-11-07T09:58:39.430Z,1.1
2022-11-07T09:59:42.024Z,1.3
2022-11-07T10:00:34.258Z,1.2
2022-11-07T10:01:34.083Z,1.6
2022-11-07T10:02:37.268Z,1.2
2022-11-07T10:03:36.142Z,1.7
2022-11-07T10:04:34.678Z,1.1
2022-11-07T10:05:49.288Z,1.1
2022-11-07T10:06:42.515Z,1.4
2022-11-07T10:07:39.473Z,1.3
2022-11-07T10:08:39.029Z,1.3
2022-11-07T10:09:42.087Z,1.5
2022-11-07T10:10:44.516Z,1.4
2022-11-07T10:11:57.599Z,1.1
2022-11-07T10:12:48.038Z,1.5
2022-11-07T10:13:42.063Z,1.5
2022-11-07T10:14:45.109Z,1.2
2022-11-07T10:15:41.533Z,1.6
2022-11-07T10:16:48.514Z,1.0
2022-11-07T10:17:42.017Z,1.8
2022-11-07T10:18:39.195Z,1.6
2022-11-07T10:19:42.065Z,1.2
2022-11-07T10:20:41.533Z,1.1
2022-11-07T10:21:48.015Z,1.1
2022-11-07T10:22:39.325Z,1.8
2022-11-07T10:23:45.000Z,1.7
2022-11-07T10:24:46.427Z,1.3
2022-11-07T10:25:38.830Z,0.9
2022-11-07T10:26:34.834Z,0.9
2022-11-07T10:27:34.845Z,1.8
2022-11-07T10:28:38.781Z,1.1
2022-11-07T10:29:44.206Z,1.1
2022-11-07T10:30:34.001Z,1.7
2022-11-07T10:31:45.039Z,1.0
2022-11-07T10:32:39.335Z,1.1
2022-11-07T10:33:41.826Z,1.3
2022-11-07T10:34:36.463Z,1.4
2022-11-07T10:35:36.487Z,1.9
2022-11-07T10:36:34.562Z,1.0
2022-11-07T10:37:34.402Z,1.9
2022-11-07T10:38:34.265Z,1.9
2022-11-07T10:39:34.114Z,1.2
2022-11-07T10:40:36.379Z,1.4
2022-11-07T10:41:35.012Z,1.5
2022-11-07T10:42:34.387Z,1.3
2022-11-07T10:43:35.873Z,1.3
2022-11-07T10:44:34.363Z,1.4
2022-11-07T10:45:37.193Z,1.1
2022-11-07T10:46:38.319Z,0.8
2022-11-07T10:47:34.396Z,1.1
2022-11-07T10:48:34.211Z,1.1
2022-11-07T10:49:34.030Z,1.5
2022-11-07T10:50:34.753Z,1.4
2022-11-07T10:51:38.363Z,0.8
2022-11-07T10:52:34.282Z,0.7
2022-11-07T10:53:38.977Z,0.9
2022-11-07T10:54:34.212Z,0.7
2022-11-07T10:55:44.866Z,1.2
2022-11-07T10:56:45.065Z,1.3
2022-11-07T10:57:34.369Z,1.5
2022-11-07T10:58:34.783Z,0.9
2022-11-07T10:59:36.730Z,1.0
2022-11-07T11:00:37.046Z,1.3
2022-11-07T11:01:34.582Z,1.3
2022-11-07T11:02:47.197Z,1.2
2022-11-07T11:03:43.674Z,1.7
2022-11-07T11:04:36.851Z,1.7
2022-11-07T11:05:41.845Z,1.2
2022-11-07T11:06:34.395Z,1.2
2022-11-07T11:07:35.605Z,1.3
2022-11-07T11:08:35.652Z,1.4
2022-11-07T11:09:35.063Z,1.3
2022-11-07T11:10:37.000Z,2.1
2022-11-07T11:11:34.331Z,1.1
2022-11-07T11:12:34.860Z,1.2
2022-11-07T11:13:34.004Z,1.3
2022-11-07T11:14:34.725Z,0.9
2022-11-07T11:15:39.416Z,1.4
2022-11-07T11:16:35.922Z,1.0
2022-11-07T11:17:34.208Z,1.4
2022-11-07T11:18:34.093Z,1.8
2022-11-07T11:19:45.514Z,1.4
2022-11-07T11:20:42.004Z,1.0
2022-11-07T11:21:38.029Z,1.6
2022-11-07T11:22:39.097Z,1.4
2022-11-07T11:23:36.807Z,1.2
2022-11-07T11:24:35.722Z,0.8
2022-11-07T11:25:43.944Z,1.1
2022-11-07T11:26:36.638Z,0.6
2022-11-07T11:27:34.823Z,1.2
2022-11-07T11:28:37.512Z,1.2
2022-11-07T11:29:42.509Z,1.1
2022-11-07T11:30:35.510Z,1.5
2022-11-07T11:31:42.321Z,1.9
2022-11-07T11:32:37.139Z,1.4
2022-11-07T11:33:42.452Z,1.0
2022-11-07T11:34:42.498Z,1.3
2022-11-07T11:35:41.672Z,1.3
2022-11-07T11:36:37.155Z,0.9
2022-11-07T11:37:37.601Z,0.9
2022-11-07T11:38:34.585Z,0.9
2022-11-07T11:39:45.519Z,0.8
2022-11-07T11:40:37.207Z,1.0
2022-11-07T11:41:39.146Z,1.0
2022-11-07T11:42:51.995Z,1.3
2022-11-07T11:43:42.517Z,0.9
2022-11-07T11:44:37.145Z,0.8
2022-11-07T11:45:48.017Z,0.9
2022-11-07T11:46:40.095Z,0.9
2022-11-07T11:47:36.475Z,1.1
2022-11-07T11:48:44.036Z,1.0
2022-11-07T11:49:42.045Z,1.9
2022-11-07T11:50:47.338Z,1.3
2022-11-07T11:51:42.006Z,0.9
2022-11-07T11:52:34.071Z,1.3
2022-11-07T11:53:34.774Z,1.1
2022-11-07T11:54:34.625Z,0.7
2022-11-07T11:55:37.850Z,0.9
2022-11-07T11:56:48.028Z,1.1
2022-11-07T11:57:41.571Z,1.0
2022-11-07T11:58:51.549Z,1.9
2022-11-07T11:59:48.016Z,1.5
2022-11-07T12:00:45.021Z,1.6
2022-11-07T12:01:47.559Z,1.4
2022-11-07T12:02:41.591Z,1.6
2022-11-07T12:03:48.512Z,1.1
2022-11-07T12:04:39.463Z,1.3
2022-11-07T12:05:57.029Z,1.0
2022-11-07T12:06:42.678Z,0.9
2022-11-07T12:07:51.951Z,0.8
2022-11-07T12:08:52.446Z,1.0
2022-11-07T12:09:45.090Z,1.4
2022-11-07T12:10:39.136Z,0.9
2022-11-07T12:11:38.935Z,1.3
2022-11-07T12:12:51.954Z,1.0
2022-11-07T12:13:42.032Z,1.1
2022-11-07T12:14:39.316Z,1.0
2022-11-07T12:15:45.011Z,0.8
2022-11-07T12:16:38.952Z,1.3
2022-11-07T12:17:39.059Z,1.0
2022-11-07T12:18:54.030Z,1.1
2022-11-07T12:19:39.249Z,0.9
2022-11-07T12:20:42.039Z,1.4
2022-11-07T12:21:45.905Z,1.0
2022-11-07T12:22:45.527Z,0.9
2022-11-07T12:23:48.018Z,0.8
2022-11-07T12:24:39.288Z,1.0
2022-11-07T12:25:39.106Z,1.1
2022-11-07T12:26:38.899Z,1.0
2022-11-07T12:27:42.524Z,1.2
2022-11-07T12:28:39.478Z,0.8
2022-11-07T12:29:39.316Z,0.7
2022-11-07T12:30:39.039Z,1.1
2022-11-07T12:31:44.550Z,0.7
2022-11-07T12:32:42.575Z,1.2
2022-11-07T12:33:42.064Z,0.8
2022-11-07T12:34:39.214Z,1.1
2022-11-07T12:35:39.059Z,0.8
2022-11-07T12:36:41.594Z,0.4
2022-11-07T12:37:52.458Z,0.6
2022-11-07T12:38:42.020Z,0.8
2022-11-07T12:39:42.037Z,0.6
2022-11-07T12:40:40.392Z,0.8
2022-11-07T12:41:38.773Z,1.1
2022-11-07T12:42:46.472Z,0.6
2022-11-07T12:43:39.371Z,0.9
2022-11-07T12:44:48.037Z,0.9
2022-11-07T12:45:50.545Z,0.9
2022-11-07T12:46:51.961Z,0.5
2022-11-07T12:47:57.089Z,1.0
2022-11-07T12:48:48.052Z,1.3
2022-11-07T12:49:42.028Z,0.9
2022-11-07T12:50:53.543Z,0.9
2022-11-07T12:51:54.572Z,0.8
2022-11-07T12:52:39.551Z,0.8
2022-11-07T12:53:42.048Z,0.5
2022-11-07T12:54:39.238Z,0.4
2022-11-07T12:55:38.956Z,0.8
2022-11-07T12:56:35.251Z,0.9
2022-11-07T12:57:36.392Z,1.2
2022-11-07T12:58:36.467Z,0.8
2022-11-07T12:59:35.338Z,0.6
2022-11-07T13:00:34.523Z,1.0
2022-11-07T13:01:39.791Z,1.1
2022-11-07T13:02:52.477Z,1.0
2022-11-07T13:03:54.028Z,0.9
2022-11-07T13:04:42.066Z,1.2
2022-11-07T13:05:38.929Z,1.0
2022-11-07T13:06:38.806Z,1.2
2022-11-07T13:07:39.504Z,0.8
2022-11-07T13:08:45.071Z,0.4
2022-11-07T13:09:56.266Z,0.9
2022-11-07T13:10:41.559Z,1.3
2022-11-07T13:11:48.165Z,1.5
2022-11-07T13:12:40.390Z,1.1
2022-11-07T13:13:51.050Z,1.5
2022-11-07T13:14:37.903Z,1.3
2022-11-07T13:15:47.728Z,0.9
2022-11-07T13:16:35.696Z,1.1
2022-11-07T13:17:38.561Z,0.7
2022-11-07T13:18:34.552Z,1.0
2022-11-07T13:19:35.324Z,0.6
2022-11-07T13:20:34.180Z,0.3
2022-11-07T13:21:43.254Z,1.1
2022-11-07T13:22:35.763Z,1.2
2022-11-07T13:23:34.390Z,0.8
2022-11-07T13:24:37.531Z,1.2
2022-11-07T13:25:34.097Z,1.0
2022-11-07T13:26:46.293Z,0.8
2022-11-07T13:27:35.749Z,1.0
2022-11-07T13:28:48.257Z,0.7
2022-11-07T13:29:35.298Z,0.5
2022-11-07T13:30:38.155Z,1.0
2022-11-07T13:31:38.374Z,1.0
2022-11-07T13:32:37.448Z,1.0
2022-11-07T13:33:34.690Z,1.1
2022-11-07T13:34:51.076Z,0.8
2022-11-07T13:35:36.058Z,1.1
2022-11-07T13:36:34.730Z,1.0
2022-11-07T13:37:39.277Z,0.6
2022-11-07T13:38:39.071Z,0.8
2022-11-07T13:39:34.233Z,1.1
2022-11-07T13:40:42.595Z,1.3
2022-11-07T13:41:35.186Z,1.0
2022-11-07T13:42:34.800Z,0.8
2022-11-07T13:43:49.063Z,0.8
2022-11-07T13:44:35.729Z,1.1
2022-11-07T13:45:42.168Z,0.6
2022-11-07T13:46:36.298Z,1.0
2022-11-07T13:47:38.196Z,1.0
2022-11-07T13:48:39.045Z,1.1